Blake, Ohio
Current Conditions -  °F | °C
As of 5:56 PM on Wednesday 17 Dec 2014 (Local Time) from KBJJ Reporting Station
Overcast Overcast  
Wind Chill: 18°   Ceiling: 1700
Heat Index: 29°   Visibility: 10mi
Dew Point: 23°   Wind: 14mph
Humidity: 78%   Direction: 270°W
Pressure: 30.12"   Gusts: NA
Location:  41.0285°N, 81.8751°W
Report Text: KBJJ 172256Z AUTO 27012KT 10SM OVC017 M02/M05 A3012 RMK AO2 SLP211 T10171050 TSNO
Loading
Personal Weather Stations






























Interactive Weather Map New forecast layout! Learn more

10-Day Weather Forecast

Advertisements
Track Severe Weather on mobile